sensor_id;sensor_type;location;lat;lon;timestamp;P1;durP1;ratioP1;P2;durP2;ratioP2
76423;SDS011;65257;52.104;4.268;2023-05-27T00:00:31;16.55;;;4.03;;
76423;SDS011;65257;52.104;4.268;2023-05-27T00:02:58;17.15;;;4.53;;
76423;SDS011;65257;52.104;4.268;2023-05-27T00:05:26;13.10;;;4.22;;
76423;SDS011;65257;52.104;4.268;2023-05-27T00:07:52;15.45;;;3.75;;
76423;SDS011;65257;52.104;4.268;2023-05-27T00:10:17;13.00;;;3.80;;
76423;SDS011;65257;52.104;4.268;2023-05-27T00:12:42;20.08;;;4.65;;
76423;SDS011;65257;52.104;4.268;2023-05-27T00:15:08;11.05;;;3.95;;
76423;SDS011;65257;52.104;4.268;2023-05-27T00:17:36;17.00;;;4.18;;
76423;SDS011;65257;52.104;4.268;2023-05-27T00:20:07;13.65;;;3.97;;
76423;SDS011;65257;52.104;4.268;2023-05-27T00:22:40;19.20;;;4.40;;
76423;SDS011;65257;52.104;4.268;2023-05-27T00:25:06;11.18;;;4.22;;
76423;SDS011;65257;52.104;4.268;2023-05-27T00:27:33;18.02;;;4.97;;
76423;SDS011;65257;52.104;4.268;2023-05-27T00:29:59;15.77;;;4.43;;
76423;SDS011;65257;52.104;4.268;2023-05-27T00:32:25;21.02;;;5.07;;
76423;SDS011;65257;52.104;4.268;2023-05-27T00:34:50;16.05;;;4.30;;
76423;SDS011;65257;52.104;4.268;2023-05-27T00:37:16;12.82;;;3.85;;
76423;SDS011;65257;52.104;4.268;2023-05-27T00:39:41;18.00;;;4.70;;
76423;SDS011;65257;52.104;4.268;2023-05-27T00:42:07;17.85;;;3.95;;
76423;SDS011;65257;52.104;4.268;2023-05-27T00:44:40;19.80;;;4.43;;
76423;SDS011;65257;52.104;4.268;2023-05-27T00:47:06;14.13;;;4.30;;
76423;SDS011;65257;52.104;4.268;2023-05-27T00:49:31;13.18;;;4.82;;
76423;SDS011;65257;52.104;4.268;2023-05-27T00:51:57;14.15;;;4.20;;
76423;SDS011;65257;52.104;4.268;2023-05-27T00:54:23;15.27;;;4.28;;
76423;SDS011;65257;52.104;4.268;2023-05-27T00:56:48;11.95;;;4.43;;
76423;SDS011;65257;52.104;4.268;2023-05-27T00:59:15;17.63;;;4.18;;
76423;SDS011;65257;52.104;4.268;2023-05-27T01:01:40;12.15;;;4.28;;
76423;SDS011;65257;52.104;4.268;2023-05-27T01:04:08;19.05;;;4.55;;
76423;SDS011;65257;52.104;4.268;2023-05-27T01:09:31;12.77;;;4.00;;
76423;SDS011;65257;52.104;4.268;2023-05-27T01:14:44;16.00;;;3.90;;
76423;SDS011;65257;52.104;4.268;2023-05-27T01:17:14;13.50;;;3.53;;
76423;SDS011;65257;52.104;4.268;2023-05-27T01:19:55;18.60;;;4.03;;
76423;SDS011;65257;52.104;4.268;2023-05-27T01:22:26;12.00;;;2.88;;
76423;SDS011;65257;52.104;4.268;2023-05-27T01:24:53;13.32;;;3.20;;
76423;SDS011;65257;52.104;4.268;2023-05-27T01:27:19;13.70;;;3.83;;
76423;SDS011;65257;52.104;4.268;2023-05-27T01:29:48;10.38;;;3.80;;
76423;SDS011;65257;52.104;4.268;2023-05-27T01:32:21;11.10;;;3.45;;
76423;SDS011;65257;52.104;4.268;2023-05-27T01:34:52;14.57;;;3.47;;
76423;SDS011;65257;52.104;4.268;2023-05-27T01:37:25;11.10;;;3.30;;
76423;SDS011;65257;52.104;4.268;2023-05-27T01:39:55;10.07;;;3.22;;
76423;SDS011;65257;52.104;4.268;2023-05-27T01:42:21;11.05;;;2.80;;
76423;SDS011;65257;52.104;4.268;2023-05-27T01:44:47;13.43;;;3.90;;
76423;SDS011;65257;52.104;4.268;2023-05-27T01:47:17;9.73;;;2.95;;
76423;SDS011;65257;52.104;4.268;2023-05-27T01:49:48;14.75;;;3.28;;
76423;SDS011;65257;52.104;4.268;2023-05-27T01:54:39;13.52;;;3.95;;
76423;SDS011;65257;52.104;4.268;2023-05-27T01:57:04;10.63;;;3.42;;
76423;SDS011;65257;52.104;4.268;2023-05-27T01:59:31;8.32;;;2.17;;
76423;SDS011;65257;52.104;4.268;2023-05-27T02:01:59;12.75;;;3.20;;
76423;SDS011;65257;52.104;4.268;2023-05-27T02:04:25;13.05;;;3.53;;
76423;SDS011;65257;52.104;4.268;2023-05-27T02:06:50;11.68;;;3.22;;
76423;SDS011;65257;52.104;4.268;2023-05-27T02:09:16;13.88;;;3.35;;
76423;SDS011;65257;52.104;4.268;2023-05-27T02:11:45;11.52;;;3.25;;
76423;SDS011;65257;52.104;4.268;2023-05-27T02:14:13;13.02;;;3.20;;
76423;SDS011;65257;52.104;4.268;2023-05-27T02:16:39;13.68;;;3.15;;
76423;SDS011;65257;52.104;4.268;2023-05-27T02:19:04;7.75;;;3.03;;
76423;SDS011;65257;52.104;4.268;2023-05-27T02:21:33;9.52;;;2.55;;
76423;SDS011;65257;52.104;4.268;2023-05-27T02:24:03;13.32;;;3.78;;
76423;SDS011;65257;52.104;4.268;2023-05-27T02:26:42;13.55;;;2.63;;
76423;SDS011;65257;52.104;4.268;2023-05-27T02:29:07;12.13;;;3.63;;
76423;SDS011;65257;52.104;4.268;2023-05-27T02:31:33;12.07;;;2.78;;
76423;SDS011;65257;52.104;4.268;2023-05-27T02:33:59;11.02;;;2.97;;
76423;SDS011;65257;52.104;4.268;2023-05-27T02:36:24;9.02;;;3.33;;
76423;SDS011;65257;52.104;4.268;2023-05-27T02:38:50;15.15;;;3.13;;
76423;SDS011;65257;52.104;4.268;2023-05-27T02:43:53;15.27;;;3.53;;
76423;SDS011;65257;52.104;4.268;2023-05-27T02:46:22;12.38;;;3.65;;
76423;SDS011;65257;52.104;4.268;2023-05-27T02:48:51;9.82;;;2.72;;
76423;SDS011;65257;52.104;4.268;2023-05-27T02:51:16;9.60;;;3.00;;
76423;SDS011;65257;52.104;4.268;2023-05-27T02:53:44;8.95;;;2.83;;
76423;SDS011;65257;52.104;4.268;2023-05-27T02:56:10;14.73;;;3.22;;
76423;SDS011;65257;52.104;4.268;2023-05-27T02:58:35;10.23;;;2.88;;
76423;SDS011;65257;52.104;4.268;2023-05-27T03:01:01;8.48;;;2.72;;
76423;SDS011;65257;52.104;4.268;2023-05-27T03:03:29;8.50;;;2.78;;
76423;SDS011;65257;52.104;4.268;2023-05-27T03:05:55;11.18;;;4.20;;
76423;SDS011;65257;52.104;4.268;2023-05-27T03:08:21;10.75;;;3.17;;
76423;SDS011;65257;52.104;4.268;2023-05-27T03:10:46;9.85;;;2.63;;
76423;SDS011;65257;52.104;4.268;2023-05-27T03:13:12;11.25;;;3.60;;
76423;SDS011;65257;52.104;4.268;2023-05-27T03:15:52;12.52;;;3.47;;
76423;SDS011;65257;52.104;4.268;2023-05-27T03:18:23;16.65;;;3.22;;
76423;SDS011;65257;52.104;4.268;2023-05-27T03:20:49;8.15;;;2.40;;
76423;SDS011;65257;52.104;4.268;2023-05-27T03:23:15;13.20;;;3.25;;
76423;SDS011;65257;52.104;4.268;2023-05-27T03:25:41;10.68;;;3.42;;
76423;SDS011;65257;52.104;4.268;2023-05-27T03:28:06;8.43;;;3.58;;
76423;SDS011;65257;52.104;4.268;2023-05-27T03:30:32;12.10;;;3.35;;
76423;SDS011;65257;52.104;4.268;2023-05-27T03:32:57;11.63;;;4.88;;
76423;SDS011;65257;52.104;4.268;2023-05-27T03:35:29;13.32;;;3.03;;
76423;SDS011;65257;52.104;4.268;2023-05-27T03:37:55;13.18;;;4.05;;
76423;SDS011;65257;52.104;4.268;2023-05-27T03:40:20;12.63;;;3.10;;
76423;SDS011;65257;52.104;4.268;2023-05-27T03:42:47;15.65;;;3.08;;
76423;SDS011;65257;52.104;4.268;2023-05-27T03:45:19;11.48;;;3.88;;
76423;SDS011;65257;52.104;4.268;2023-05-27T03:47:44;12.23;;;2.60;;
76423;SDS011;65257;52.104;4.268;2023-05-27T03:50:10;18.73;;;3.00;;
76423;SDS011;65257;52.104;4.268;2023-05-27T03:52:35;13.43;;;3.58;;
76423;SDS011;65257;52.104;4.268;2023-05-27T03:55:02;12.27;;;2.78;;
76423;SDS011;65257;52.104;4.268;2023-05-27T03:57:33;8.45;;;3.17;;
76423;SDS011;65257;52.104;4.268;2023-05-27T03:59:59;15.30;;;3.92;;
76423;SDS011;65257;52.104;4.268;2023-05-27T04:02:25;8.77;;;3.00;;
76423;SDS011;65257;52.104;4.268;2023-05-27T04:04:56;17.35;;;3.30;;
76423;SDS011;65257;52.104;4.268;2023-05-27T04:07:28;9.55;;;3.20;;
76423;SDS011;65257;52.104;4.268;2023-05-27T04:09:59;10.00;;;4.25;;
76423;SDS011;65257;52.104;4.268;2023-05-27T04:12:28;12.40;;;3.67;;
76423;SDS011;65257;52.104;4.268;2023-05-27T04:14:59;11.15;;;3.25;;
76423;SDS011;65257;52.104;4.268;2023-05-27T04:17:25;11.18;;;2.92;;
76423;SDS011;65257;52.104;4.268;2023-05-27T04:19:54;11.85;;;3.90;;
76423;SDS011;65257;52.104;4.268;2023-05-27T04:22:21;13.35;;;3.15;;
76423;SDS011;65257;52.104;4.268;2023-05-27T04:24:46;9.02;;;2.83;;
76423;SDS011;65257;52.104;4.268;2023-05-27T04:27:21;12.55;;;3.50;;
76423;SDS011;65257;52.104;4.268;2023-05-27T04:29:49;9.63;;;2.58;;
76423;SDS011;65257;52.104;4.268;2023-05-27T04:32:16;16.60;;;3.47;;
76423;SDS011;65257;52.104;4.268;2023-05-27T04:34:45;11.50;;;3.53;;
76423;SDS011;65257;52.104;4.268;2023-05-27T04:37:10;9.48;;;3.50;;
76423;SDS011;65257;52.104;4.268;2023-05-27T04:39:36;15.05;;;3.22;;
76423;SDS011;65257;52.104;4.268;2023-05-27T04:42:04;9.45;;;2.83;;
76423;SDS011;65257;52.104;4.268;2023-05-27T04:44:30;9.80;;;2.53;;
76423;SDS011;65257;52.104;4.268;2023-05-27T04:46:55;6.95;;;2.83;;
76423;SDS011;65257;52.104;4.268;2023-05-27T04:49:21;15.65;;;3.85;;
76423;SDS011;65257;52.104;4.268;2023-05-27T04:51:47;10.88;;;3.05;;
76423;SDS011;65257;52.104;4.268;2023-05-27T04:54:13;12.93;;;4.55;;
76423;SDS011;65257;52.104;4.268;2023-05-27T04:56:39;7.38;;;2.58;;
76423;SDS011;65257;52.104;4.268;2023-05-27T04:59:04;13.48;;;2.90;;
76423;SDS011;65257;52.104;4.268;2023-05-27T05:04:51;12.20;;;3.13;;
76423;SDS011;65257;52.104;4.268;2023-05-27T05:07:17;15.80;;;2.50;;
76423;SDS011;65257;52.104;4.268;2023-05-27T05:09:44;9.02;;;3.15;;
76423;SDS011;65257;52.104;4.268;2023-05-27T05:12:12;10.40;;;2.65;;
76423;SDS011;65257;52.104;4.268;2023-05-27T05:14:46;13.38;;;3.08;;
76423;SDS011;65257;52.104;4.268;2023-05-27T05:17:15;8.40;;;2.80;;
76423;SDS011;65257;52.104;4.268;2023-05-27T05:19:40;7.32;;;2.78;;
76423;SDS011;65257;52.104;4.268;2023-05-27T05:22:05;10.55;;;2.33;;
76423;SDS011;65257;52.104;4.268;2023-05-27T05:24:31;14.02;;;3.33;;
76423;SDS011;65257;52.104;4.268;2023-05-27T05:26:57;8.05;;;3.08;;
76423;SDS011;65257;52.104;4.268;2023-05-27T05:29:22;13.77;;;3.05;;
76423;SDS011;65257;52.104;4.268;2023-05-27T05:31:47;8.40;;;3.10;;
76423;SDS011;65257;52.104;4.268;2023-05-27T05:34:13;13.23;;;3.38;;
76423;SDS011;65257;52.104;4.268;2023-05-27T05:36:39;10.52;;;3.88;;
76423;SDS011;65257;52.104;4.268;2023-05-27T05:39:04;9.73;;;2.63;;
76423;SDS011;65257;52.104;4.268;2023-05-27T05:41:30;12.57;;;3.25;;
76423;SDS011;65257;52.104;4.268;2023-05-27T05:43:56;12.00;;;3.15;;
76423;SDS011;65257;52.104;4.268;2023-05-27T05:46:21;11.40;;;2.83;;
76423;SDS011;65257;52.104;4.268;2023-05-27T05:48:52;7.22;;;2.90;;
76423;SDS011;65257;52.104;4.268;2023-05-27T05:51:20;11.73;;;2.97;;
76423;SDS011;65257;52.104;4.268;2023-05-27T05:53:46;15.27;;;3.63;;
76423;SDS011;65257;52.104;4.268;2023-05-27T05:56:11;17.13;;;3.03;;
76423;SDS011;65257;52.104;4.268;2023-05-27T05:58:37;9.50;;;2.53;;
76423;SDS011;65257;52.104;4.268;2023-05-27T06:01:08;12.73;;;2.67;;
76423;SDS011;65257;52.104;4.268;2023-05-27T06:03:33;9.68;;;2.90;;
76423;SDS011;65257;52.104;4.268;2023-05-27T06:06:02;9.88;;;3.17;;
76423;SDS011;65257;52.104;4.268;2023-05-27T06:08:28;13.63;;;3.40;;
76423;SDS011;65257;52.104;4.268;2023-05-27T06:10:55;10.23;;;3.22;;
76423;SDS011;65257;52.104;4.268;2023-05-27T06:13:21;9.88;;;3.05;;
76423;SDS011;65257;52.104;4.268;2023-05-27T06:15:47;10.23;;;3.65;;
76423;SDS011;65257;52.104;4.268;2023-05-27T06:18:15;12.15;;;3.15;;
76423;SDS011;65257;52.104;4.268;2023-05-27T06:20:41;10.13;;;3.25;;
76423;SDS011;65257;52.104;4.268;2023-05-27T06:23:12;10.13;;;3.05;;
76423;SDS011;65257;52.104;4.268;2023-05-27T06:25:38;12.52;;;3.10;;
76423;SDS011;65257;52.104;4.268;2023-05-27T06:28:04;9.18;;;2.72;;
76423;SDS011;65257;52.104;4.268;2023-05-27T06:30:32;7.68;;;2.70;;
76423;SDS011;65257;52.104;4.268;2023-05-27T06:32:58;10.63;;;2.38;;
76423;SDS011;65257;52.104;4.268;2023-05-27T06:35:23;6.32;;;2.53;;
76423;SDS011;65257;52.104;4.268;2023-05-27T06:37:49;11.77;;;3.33;;
76423;SDS011;65257;52.104;4.268;2023-05-27T06:40:15;10.50;;;3.05;;
76423;SDS011;65257;52.104;4.268;2023-05-27T06:42:41;11.52;;;3.30;;
76423;SDS011;65257;52.104;4.268;2023-05-27T06:45:11;11.07;;;3.05;;
76423;SDS011;65257;52.104;4.268;2023-05-27T06:47:37;10.55;;;3.28;;
76423;SDS011;65257;52.104;4.268;2023-05-27T06:50:06;12.10;;;2.90;;
76423;SDS011;65257;52.104;4.268;2023-05-27T06:52:32;13.00;;;3.30;;
76423;SDS011;65257;52.104;4.268;2023-05-27T06:55:00;12.70;;;3.88;;
76423;SDS011;65257;52.104;4.268;2023-05-27T06:57:26;12.70;;;3.90;;
76423;SDS011;65257;52.104;4.268;2023-05-27T06:59:55;12.02;;;3.75;;
76423;SDS011;65257;52.104;4.268;2023-05-27T07:02:23;8.05;;;3.15;;
76423;SDS011;65257;52.104;4.268;2023-05-27T07:04:54;10.15;;;3.22;;
76423;SDS011;65257;52.104;4.268;2023-05-27T07:07:21;14.75;;;3.88;;
76423;SDS011;65257;52.104;4.268;2023-05-27T07:09:47;16.40;;;3.58;;
76423;SDS011;65257;52.104;4.268;2023-05-27T07:12:21;12.00;;;3.20;;
76423;SDS011;65257;52.104;4.268;2023-05-27T07:14:48;15.48;;;2.70;;
76423;SDS011;65257;52.104;4.268;2023-05-27T07:17:14;10.60;;;3.00;;
76423;SDS011;65257;52.104;4.268;2023-05-27T07:19:39;10.40;;;3.10;;
76423;SDS011;65257;52.104;4.268;2023-05-27T07:22:07;12.10;;;2.42;;
76423;SDS011;65257;52.104;4.268;2023-05-27T07:24:33;9.07;;;2.75;;
76423;SDS011;65257;52.104;4.268;2023-05-27T07:27:17;11.38;;;4.22;;
76423;SDS011;65257;52.104;4.268;2023-05-27T07:29:45;15.52;;;3.03;;
76423;SDS011;65257;52.104;4.268;2023-05-27T07:32:13;9.30;;;3.38;;
76423;SDS011;65257;52.104;4.268;2023-05-27T07:34:45;12.25;;;3.50;;
76423;SDS011;65257;52.104;4.268;2023-05-27T07:37:10;10.25;;;3.50;;
76423;SDS011;65257;52.104;4.268;2023-05-27T07:39:36;12.63;;;3.55;;
76423;SDS011;65257;52.104;4.268;2023-05-27T07:42:01;11.82;;;3.63;;
76423;SDS011;65257;52.104;4.268;2023-05-27T07:44:28;10.13;;;3.10;;
76423;SDS011;65257;52.104;4.268;2023-05-27T07:46:53;10.18;;;3.42;;
76423;SDS011;65257;52.104;4.268;2023-05-27T07:49:18;13.52;;;3.25;;
76423;SDS011;65257;52.104;4.268;2023-05-27T07:51:47;10.35;;;3.60;;
76423;SDS011;65257;52.104;4.268;2023-05-27T07:54:12;15.32;;;4.22;;
76423;SDS011;65257;52.104;4.268;2023-05-27T07:56:38;9.85;;;3.58;;
76423;SDS011;65257;52.104;4.268;2023-05-27T07:59:05;12.60;;;3.45;;
76423;SDS011;65257;52.104;4.268;2023-05-27T08:01:34;16.60;;;4.45;;
76423;SDS011;65257;52.104;4.268;2023-05-27T08:03:59;12.40;;;3.80;;
76423;SDS011;65257;52.104;4.268;2023-05-27T08:06:25;6.80;;;2.90;;
76423;SDS011;65257;52.104;4.268;2023-05-27T08:08:51;8.85;;;3.05;;
76423;SDS011;65257;52.104;4.268;2023-05-27T08:11:16;14.32;;;3.65;;
76423;SDS011;65257;52.104;4.268;2023-05-27T08:13:44;14.70;;;3.92;;
76423;SDS011;65257;52.104;4.268;2023-05-27T08:16:10;12.02;;;3.33;;
76423;SDS011;65257;52.104;4.268;2023-05-27T08:18:36;14.88;;;4.22;;
76423;SDS011;65257;52.104;4.268;2023-05-27T08:21:02;10.00;;;2.97;;
76423;SDS011;65257;52.104;4.268;2023-05-27T08:23:30;11.30;;;4.05;;
76423;SDS011;65257;52.104;4.268;2023-05-27T08:25:56;11.98;;;3.92;;
76423;SDS011;65257;52.104;4.268;2023-05-27T08:28:24;9.10;;;3.50;;
76423;SDS011;65257;52.104;4.268;2023-05-27T08:30:53;14.98;;;3.38;;
76423;SDS011;65257;52.104;4.268;2023-05-27T08:33:27;16.35;;;4.40;;
76423;SDS011;65257;52.104;4.268;2023-05-27T08:35:53;10.95;;;3.83;;
76423;SDS011;65257;52.104;4.268;2023-05-27T08:38:18;12.82;;;3.78;;
76423;SDS011;65257;52.104;4.268;2023-05-27T08:40:55;11.80;;;3.28;;
76423;SDS011;65257;52.104;4.268;2023-05-27T08:43:21;13.15;;;3.35;;
76423;SDS011;65257;52.104;4.268;2023-05-27T08:45:47;11.55;;;3.25;;
76423;SDS011;65257;52.104;4.268;2023-05-27T08:48:13;9.30;;;3.85;;
76423;SDS011;65257;52.104;4.268;2023-05-27T08:50:40;5.88;;;2.92;;
76423;SDS011;65257;52.104;4.268;2023-05-27T08:53:06;13.45;;;3.80;;
76423;SDS011;65257;52.104;4.268;2023-05-27T08:55:33;11.20;;;3.92;;
76423;SDS011;65257;52.104;4.268;2023-05-27T08:58:02;12.82;;;3.42;;
76423;SDS011;65257;52.104;4.268;2023-05-27T09:00:29;12.25;;;3.88;;
76423;SDS011;65257;52.104;4.268;2023-05-27T09:02:55;14.27;;;3.67;;
76423;SDS011;65257;52.104;4.268;2023-05-27T09:05:30;7.85;;;3.00;;
76423;SDS011;65257;52.104;4.268;2023-05-27T09:07:55;10.13;;;3.03;;
76423;SDS011;65257;52.104;4.268;2023-05-27T09:10:34;8.40;;;3.13;;
76423;SDS011;65257;52.104;4.268;2023-05-27T09:13:03;10.93;;;3.17;;
76423;SDS011;65257;52.104;4.268;2023-05-27T09:15:30;11.75;;;2.83;;
76423;SDS011;65257;52.104;4.268;2023-05-27T09:17:56;11.15;;;3.88;;
76423;SDS011;65257;52.104;4.268;2023-05-27T09:20:28;10.20;;;3.20;;
76423;SDS011;65257;52.104;4.268;2023-05-27T09:25:27;13.20;;;2.90;;
76423;SDS011;65257;52.104;4.268;2023-05-27T09:27:54;13.45;;;3.47;;
76423;SDS011;65257;52.104;4.268;2023-05-27T09:30:20;11.23;;;3.28;;
76423;SDS011;65257;52.104;4.268;2023-05-27T09:32:50;11.48;;;3.60;;
76423;SDS011;65257;52.104;4.268;2023-05-27T09:35:16;12.23;;;3.33;;
76423;SDS011;65257;52.104;4.268;2023-05-27T09:37:42;12.63;;;3.00;;
76423;SDS011;65257;52.104;4.268;2023-05-27T09:40:11;11.77;;;3.00;;
76423;SDS011;65257;52.104;4.268;2023-05-27T09:45:19;10.80;;;3.40;;
76423;SDS011;65257;52.104;4.268;2023-05-27T09:50:14;12.27;;;3.08;;
76423;SDS011;65257;52.104;4.268;2023-05-27T09:52:41;10.38;;;3.05;;
76423;SDS011;65257;52.104;4.268;2023-05-27T09:55:09;9.27;;;4.10;;
76423;SDS011;65257;52.104;4.268;2023-05-27T09:57:43;14.10;;;3.22;;
76423;SDS011;65257;52.104;4.268;2023-05-27T10:00:10;18.38;;;3.65;;
76423;SDS011;65257;52.104;4.268;2023-05-27T10:02:41;10.38;;;3.10;;
76423;SDS011;65257;52.104;4.268;2023-05-27T10:05:08;11.18;;;3.08;;
76423;SDS011;65257;52.104;4.268;2023-05-27T10:07:37;7.35;;;2.97;;
76423;SDS011;65257;52.104;4.268;2023-05-27T10:10:06;9.07;;;3.92;;
76423;SDS011;65257;52.104;4.268;2023-05-27T10:12:42;8.15;;;3.45;;
76423;SDS011;65257;52.104;4.268;2023-05-27T10:15:28;11.98;;;3.45;;
76423;SDS011;65257;52.104;4.268;2023-05-27T10:18:07;11.95;;;3.47;;
76423;SDS011;65257;52.104;4.268;2023-05-27T10:20:39;14.10;;;4.55;;
76423;SDS011;65257;52.104;4.268;2023-05-27T10:26:06;11.02;;;3.63;;
76423;SDS011;65257;52.104;4.268;2023-05-27T10:28:34;17.80;;;3.65;;
76423;SDS011;65257;52.104;4.268;2023-05-27T10:31:10;14.00;;;3.38;;
76423;SDS011;65257;52.104;4.268;2023-05-27T10:33:36;10.82;;;3.40;;
76423;SDS011;65257;52.104;4.268;2023-05-27T10:36:15;10.82;;;3.58;;
76423;SDS011;65257;52.104;4.268;2023-05-27T10:38:43;13.07;;;4.28;;
76423;SDS011;65257;52.104;4.268;2023-05-27T10:41:19;14.57;;;4.22;;
76423;SDS011;65257;52.104;4.268;2023-05-27T10:43:58;13.10;;;3.85;;
76423;SDS011;65257;52.104;4.268;2023-05-27T10:46:24;14.15;;;4.32;;
76423;SDS011;65257;52.104;4.268;2023-05-27T10:48:50;16.92;;;4.20;;
76423;SDS011;65257;52.104;4.268;2023-05-27T10:51:16;16.58;;;3.78;;
76423;SDS011;65257;52.104;4.268;2023-05-27T10:53:45;11.98;;;4.32;;
76423;SDS011;65257;52.104;4.268;2023-05-27T10:56:14;19.30;;;4.78;;
76423;SDS011;65257;52.104;4.268;2023-05-27T10:58:40;18.38;;;4.30;;
76423;SDS011;65257;52.104;4.268;2023-05-27T11:01:09;13.23;;;4.00;;
76423;SDS011;65257;52.104;4.268;2023-05-27T11:03:41;17.27;;;4.70;;
76423;SDS011;65257;52.104;4.268;2023-05-27T11:06:07;21.17;;;4.85;;
76423;SDS011;65257;52.104;4.268;2023-05-27T11:08:43;15.52;;;4.40;;
76423;SDS011;65257;52.104;4.268;2023-05-27T11:11:09;12.88;;;5.68;;
76423;SDS011;65257;52.104;4.268;2023-05-27T11:13:42;10.35;;;4.25;;
76423;SDS011;65257;52.104;4.268;2023-05-27T11:16:11;16.35;;;4.38;;
76423;SDS011;65257;52.104;4.268;2023-05-27T11:18:43;12.98;;;3.85;;
76423;SDS011;65257;52.104;4.268;2023-05-27T11:21:11;16.02;;;4.80;;
76423;SDS011;65257;52.104;4.268;2023-05-27T11:23:46;18.85;;;5.03;;
76423;SDS011;65257;52.104;4.268;2023-05-27T11:26:17;17.45;;;4.40;;
76423;SDS011;65257;52.104;4.268;2023-05-27T11:28:58;13.27;;;4.60;;
76423;SDS011;65257;52.104;4.268;2023-05-27T11:31:32;14.15;;;4.45;;
76423;SDS011;65257;52.104;4.268;2023-05-27T11:33:58;13.10;;;5.03;;
76423;SDS011;65257;52.104;4.268;2023-05-27T11:36:29;21.25;;;5.68;;
76423;SDS011;65257;52.104;4.268;2023-05-27T11:38:57;18.60;;;5.55;;
76423;SDS011;65257;52.104;4.268;2023-05-27T11:41:47;18.42;;;5.10;;
76423;SDS011;65257;52.104;4.268;2023-05-27T11:44:14;16.58;;;6.18;;
76423;SDS011;65257;52.104;4.268;2023-05-27T11:46:40;22.40;;;4.95;;
76423;SDS011;65257;52.104;4.268;2023-05-27T11:49:08;18.73;;;5.38;;
76423;SDS011;65257;52.104;4.268;2023-05-27T11:51:39;15.75;;;5.18;;
76423;SDS011;65257;52.104;4.268;2023-05-27T11:54:19;18.80;;;5.50;;
76423;SDS011;65257;52.104;4.268;2023-05-27T11:56:49;17.83;;;5.60;;
76423;SDS011;65257;52.104;4.268;2023-05-27T11:59:16;15.43;;;5.18;;
76423;SDS011;65257;52.104;4.268;2023-05-27T12:01:43;18.73;;;6.43;;
76423;SDS011;65257;52.104;4.268;2023-05-27T12:04:12;20.42;;;6.30;;
76423;SDS011;65257;52.104;4.268;2023-05-27T12:06:37;24.25;;;6.10;;
76423;SDS011;65257;52.104;4.268;2023-05-27T12:09:04;18.08;;;5.75;;
76423;SDS011;65257;52.104;4.268;2023-05-27T12:11:33;18.23;;;5.63;;
76423;SDS011;65257;52.104;4.268;2023-05-27T12:14:00;16.13;;;5.50;;
76423;SDS011;65257;52.104;4.268;2023-05-27T12:16:34;21.65;;;7.13;;
76423;SDS011;65257;52.104;4.268;2023-05-27T12:18:59;19.95;;;6.38;;
76423;SDS011;65257;52.104;4.268;2023-05-27T12:21:25;18.40;;;6.03;;
76423;SDS011;65257;52.104;4.268;2023-05-27T12:23:51;19.35;;;5.93;;
76423;SDS011;65257;52.104;4.268;2023-05-27T12:26:17;16.27;;;5.55;;
76423;SDS011;65257;52.104;4.268;2023-05-27T12:28:43;28.30;;;6.25;;
76423;SDS011;65257;52.104;4.268;2023-05-27T12:31:09;32.80;;;7.03;;
76423;SDS011;65257;52.104;4.268;2023-05-27T12:33:37;18.65;;;5.82;;
76423;SDS011;65257;52.104;4.268;2023-05-27T12:36:06;15.95;;;5.25;;
76423;SDS011;65257;52.104;4.268;2023-05-27T12:41:11;21.87;;;5.83;;
76423;SDS011;65257;52.104;4.268;2023-05-27T12:43:39;22.20;;;5.50;;
76423;SDS011;65257;52.104;4.268;2023-05-27T12:46:05;15.32;;;5.70;;
76423;SDS011;65257;52.104;4.268;2023-05-27T12:48:32;18.70;;;6.22;;
76423;SDS011;65257;52.104;4.268;2023-05-27T12:50:58;17.88;;;5.13;;
76423;SDS011;65257;52.104;4.268;2023-05-27T12:53:23;15.38;;;4.85;;
76423;SDS011;65257;52.104;4.268;2023-05-27T12:55:49;17.35;;;3.95;;
76423;SDS011;65257;52.104;4.268;2023-05-27T12:58:17;19.20;;;5.55;;
76423;SDS011;65257;52.104;4.268;2023-05-27T13:00:43;19.45;;;4.60;;
76423;SDS011;65257;52.104;4.268;2023-05-27T13:03:09;17.98;;;5.40;;
76423;SDS011;65257;52.104;4.268;2023-05-27T13:05:35;16.95;;;4.90;;
76423;SDS011;65257;52.104;4.268;2023-05-27T13:08:01;19.20;;;4.53;;
76423;SDS011;65257;52.104;4.268;2023-05-27T13:10:29;21.90;;;4.18;;
76423;SDS011;65257;52.104;4.268;2023-05-27T13:12:56;24.42;;;6.05;;
76423;SDS011;65257;52.104;4.268;2023-05-27T13:15:24;26.02;;;6.85;;
76423;SDS011;65257;52.104;4.268;2023-05-27T13:17:53;28.02;;;5.45;;
76423;SDS011;65257;52.104;4.268;2023-05-27T13:20:20;18.55;;;5.68;;
76423;SDS011;65257;52.104;4.268;2023-05-27T13:22:47;26.90;;;5.63;;
76423;SDS011;65257;52.104;4.268;2023-05-27T13:25:14;19.13;;;5.15;;
76423;SDS011;65257;52.104;4.268;2023-05-27T13:27:40;15.63;;;4.97;;
76423;SDS011;65257;52.104;4.268;2023-05-27T13:30:08;23.98;;;6.15;;
76423;SDS011;65257;52.104;4.268;2023-05-27T13:32:34;22.15;;;4.85;;
76423;SDS011;65257;52.104;4.268;2023-05-27T13:35:08;19.48;;;5.35;;
76423;SDS011;65257;52.104;4.268;2023-05-27T13:37:34;33.00;;;6.13;;
76423;SDS011;65257;52.104;4.268;2023-05-27T13:40:00;13.77;;;5.05;;
76423;SDS011;65257;52.104;4.268;2023-05-27T13:42:29;20.10;;;4.45;;
76423;SDS011;65257;52.104;4.268;2023-05-27T13:44:54;19.80;;;5.40;;
76423;SDS011;65257;52.104;4.268;2023-05-27T13:47:20;20.60;;;5.00;;
76423;SDS011;65257;52.104;4.268;2023-05-27T13:49:45;17.33;;;4.72;;
76423;SDS011;65257;52.104;4.268;2023-05-27T13:52:14;17.67;;;5.60;;
76423;SDS011;65257;52.104;4.268;2023-05-27T13:54:40;18.35;;;5.63;;
76423;SDS011;65257;52.104;4.268;2023-05-27T13:57:05;17.95;;;5.00;;
76423;SDS011;65257;52.104;4.268;2023-05-27T13:59:34;23.10;;;4.93;;
76423;SDS011;65257;52.104;4.268;2023-05-27T14:02:02;20.33;;;4.72;;
76423;SDS011;65257;52.104;4.268;2023-05-27T14:04:31;19.80;;;5.20;;
76423;SDS011;65257;52.104;4.268;2023-05-27T14:06:57;24.77;;;5.50;;
76423;SDS011;65257;52.104;4.268;2023-05-27T14:09:26;16.95;;;4.47;;
76423;SDS011;65257;52.104;4.268;2023-05-27T14:11:52;22.27;;;6.10;;
76423;SDS011;65257;52.104;4.268;2023-05-27T14:14:21;17.10;;;4.93;;
76423;SDS011;65257;52.104;4.268;2023-05-27T14:16:46;16.70;;;5.15;;
76423;SDS011;65257;52.104;4.268;2023-05-27T14:19:12;19.85;;;5.85;;
76423;SDS011;65257;52.104;4.268;2023-05-27T14:21:38;19.70;;;5.25;;
76423;SDS011;65257;52.104;4.268;2023-05-27T14:24:04;22.88;;;5.35;;
76423;SDS011;65257;52.104;4.268;2023-05-27T14:26:30;22.67;;;4.97;;
76423;SDS011;65257;52.104;4.268;2023-05-27T14:28:55;14.98;;;4.47;;
76423;SDS011;65257;52.104;4.268;2023-05-27T14:31:21;21.40;;;5.70;;
76423;SDS011;65257;52.104;4.268;2023-05-27T14:33:46;15.35;;;4.72;;
76423;SDS011;65257;52.104;4.268;2023-05-27T14:36:12;25.25;;;5.82;;
76423;SDS011;65257;52.104;4.268;2023-05-27T14:38:44;17.73;;;5.05;;
76423;SDS011;65257;52.104;4.268;2023-05-27T14:41:22;19.90;;;5.55;;
76423;SDS011;65257;52.104;4.268;2023-05-27T14:43:47;19.65;;;4.60;;
76423;SDS011;65257;52.104;4.268;2023-05-27T14:46:15;17.35;;;5.40;;
76423;SDS011;65257;52.104;4.268;2023-05-27T14:48:41;22.95;;;6.32;;
76423;SDS011;65257;52.104;4.268;2023-05-27T14:51:12;16.92;;;5.68;;
76423;SDS011;65257;52.104;4.268;2023-05-27T14:53:38;20.13;;;5.32;;
76423;SDS011;65257;52.104;4.268;2023-05-27T14:56:11;25.08;;;6.18;;
76423;SDS011;65257;52.104;4.268;2023-05-27T14:58:36;17.17;;;5.63;;
76423;SDS011;65257;52.104;4.268;2023-05-27T15:01:05;17.05;;;6.10;;
76423;SDS011;65257;52.104;4.268;2023-05-27T15:03:33;18.85;;;5.97;;
76423;SDS011;65257;52.104;4.268;2023-05-27T15:05:59;19.10;;;5.50;;